sensor_id;sensor_type;location;lat;lon;timestamp;pressure;altitude;pressure_sealevel;temperature
41940;BMP180;23057;48.554;14.454;2023-05-21T00:00:35;93854.00;;;21.80
41940;BMP180;23057;48.554;14.454;2023-05-21T00:03:06;93855.00;;;21.80
41940;BMP180;23057;48.554;14.454;2023-05-21T00:05:43;93852.00;;;21.80
41940;BMP180;23057;48.554;14.454;2023-05-21T00:08:16;93844.00;;;21.80
41940;BMP180;23057;48.554;14.454;2023-05-21T00:10:47;93846.00;;;21.80
41940;BMP180;23057;48.554;14.454;2023-05-21T00:13:17;93847.00;;;21.90
41940;BMP180;23057;48.554;14.454;2023-05-21T00:15:48;93844.00;;;21.90
41940;BMP180;23057;48.554;14.454;2023-05-21T00:18:19;93841.00;;;22.00
41940;BMP180;23057;48.554;14.454;2023-05-21T00:20:51;93843.00;;;22.00
41940;BMP180;23057;48.554;14.454;2023-05-21T00:23:22;93840.00;;;22.10
41940;BMP180;23057;48.554;14.454;2023-05-21T00:25:55;93832.00;;;22.10
41940;BMP180;23057;48.554;14.454;2023-05-21T00:28:26;93835.00;;;22.10
41940;BMP180;23057;48.554;14.454;2023-05-21T00:30:57;93825.00;;;22.10
41940;BMP180;23057;48.554;14.454;2023-05-21T00:33:27;93823.00;;;22.10
41940;BMP180;23057;48.554;14.454;2023-05-21T00:35:58;93822.00;;;22.00
41940;BMP180;23057;48.554;14.454;2023-05-21T00:38:29;93820.00;;;22.00
41940;BMP180;23057;48.554;14.454;2023-05-21T00:41:02;93823.00;;;22.00
41940;BMP180;23057;48.554;14.454;2023-05-21T00:43:32;93827.00;;;22.00
41940;BMP180;23057;48.554;14.454;2023-05-21T00:46:03;93819.00;;;22.10
41940;BMP180;23057;48.554;14.454;2023-05-21T00:48:34;93823.00;;;22.10
41940;BMP180;23057;48.554;14.454;2023-05-21T00:51:05;93819.00;;;22.10
41940;BMP180;23057;48.554;14.454;2023-05-21T00:53:37;93822.00;;;22.10
41940;BMP180;23057;48.554;14.454;2023-05-21T00:56:08;93822.00;;;22.10
41940;BMP180;23057;48.554;14.454;2023-05-21T00:58:39;93817.00;;;22.10
41940;BMP180;23057;48.554;14.454;2023-05-21T01:01:11;93816.00;;;22.10
41940;BMP180;23057;48.554;14.454;2023-05-21T01:03:43;93819.00;;;22.10
41940;BMP180;23057;48.554;14.454;2023-05-21T01:06:13;93815.00;;;22.10
41940;BMP180;23057;48.554;14.454;2023-05-21T01:08:45;93813.00;;;22.10
41940;BMP180;23057;48.554;14.454;2023-05-21T01:11:17;93811.00;;;22.10
41940;BMP180;23057;48.554;14.454;2023-05-21T01:13:49;93809.00;;;22.10
41940;BMP180;23057;48.554;14.454;2023-05-21T01:16:20;93805.00;;;22.10
41940;BMP180;23057;48.554;14.454;2023-05-21T01:18:51;93807.00;;;22.10
41940;BMP180;23057;48.554;14.454;2023-05-21T01:21:23;93806.00;;;22.10
41940;BMP180;23057;48.554;14.454;2023-05-21T01:23:55;93794.00;;;22.10
41940;BMP180;23057;48.554;14.454;2023-05-21T01:26:26;93796.00;;;22.00
41940;BMP180;23057;48.554;14.454;2023-05-21T01:28:58;93793.00;;;22.00
41940;BMP180;23057;48.554;14.454;2023-05-21T01:32:19;93788.00;;;22.00
41940;BMP180;23057;48.554;14.454;2023-05-21T01:35:04;93797.00;;;21.90
41940;BMP180;23057;48.554;14.454;2023-05-21T01:38:11;93790.00;;;21.80
41940;BMP180;23057;48.554;14.454;2023-05-21T01:41:01;93792.00;;;21.70
41940;BMP180;23057;48.554;14.454;2023-05-21T01:43:37;93787.00;;;21.50
41940;BMP180;23057;48.554;14.454;2023-05-21T01:46:11;93783.00;;;21.40
41940;BMP180;23057;48.554;14.454;2023-05-21T01:48:46;93791.00;;;21.20
41940;BMP180;23057;48.554;14.454;2023-05-21T01:51:19;93789.00;;;21.10
41940;BMP180;23057;48.554;14.454;2023-05-21T01:53:51;93784.00;;;21.00
41940;BMP180;23057;48.554;14.454;2023-05-21T01:56:21;93777.00;;;20.90
41940;BMP180;23057;48.554;14.454;2023-05-21T01:58:55;93778.00;;;20.80
41940;BMP180;23057;48.554;14.454;2023-05-21T02:01:27;93776.00;;;20.70
41940;BMP180;23057;48.554;14.454;2023-05-21T02:04:01;93776.00;;;20.60
41940;BMP180;23057;48.554;14.454;2023-05-21T02:06:32;93768.00;;;20.50
41940;BMP180;23057;48.554;14.454;2023-05-21T02:09:05;93775.00;;;20.40
41940;BMP180;23057;48.554;14.454;2023-05-21T02:11:36;93774.00;;;20.30
41940;BMP180;23057;48.554;14.454;2023-05-21T02:14:06;93767.00;;;20.10
41940;BMP180;23057;48.554;14.454;2023-05-21T02:16:39;93775.00;;;19.90
41940;BMP180;23057;48.554;14.454;2023-05-21T02:19:11;93769.00;;;19.90
41940;BMP180;23057;48.554;14.454;2023-05-21T02:21:41;93769.00;;;19.80
41940;BMP180;23057;48.554;14.454;2023-05-21T02:24:12;93763.00;;;19.80
41940;BMP180;23057;48.554;14.454;2023-05-21T02:26:43;93773.00;;;19.70
41940;BMP180;23057;48.554;14.454;2023-05-21T02:29:14;93770.00;;;19.60
41940;BMP180;23057;48.554;14.454;2023-05-21T02:31:45;93769.00;;;19.50
41940;BMP180;23057;48.554;14.454;2023-05-21T02:34:15;93767.00;;;19.30
41940;BMP180;23057;48.554;14.454;2023-05-21T02:36:47;93760.00;;;19.20
41940;BMP180;23057;48.554;14.454;2023-05-21T02:39:18;93752.00;;;19.20
41940;BMP180;23057;48.554;14.454;2023-05-21T02:41:49;93755.00;;;19.10
41940;BMP180;23057;48.554;14.454;2023-05-21T02:44:20;93759.00;;;19.10
41940;BMP180;23057;48.554;14.454;2023-05-21T02:46:53;93768.00;;;19.10
41940;BMP180;23057;48.554;14.454;2023-05-21T02:49:24;93757.00;;;19.10
41940;BMP180;23057;48.554;14.454;2023-05-21T02:51:54;93758.00;;;19.00
41940;BMP180;23057;48.554;14.454;2023-05-21T02:54:25;93762.00;;;19.00
41940;BMP180;23057;48.554;14.454;2023-05-21T02:56:56;93757.00;;;19.00
41940;BMP180;23057;48.554;14.454;2023-05-21T02:59:27;93756.00;;;18.90
41940;BMP180;23057;48.554;14.454;2023-05-21T03:01:57;93754.00;;;18.90
41940;BMP180;23057;48.554;14.454;2023-05-21T03:04:28;93750.00;;;18.90
41940;BMP180;23057;48.554;14.454;2023-05-21T03:06:59;93755.00;;;18.90
41940;BMP180;23057;48.554;14.454;2023-05-21T03:09:31;93757.00;;;19.00
41940;BMP180;23057;48.554;14.454;2023-05-21T03:12:02;93750.00;;;19.00
41940;BMP180;23057;48.554;14.454;2023-05-21T03:14:33;93753.00;;;19.00
41940;BMP180;23057;48.554;14.454;2023-05-21T03:17:04;93754.00;;;19.00
41940;BMP180;23057;48.554;14.454;2023-05-21T03:19:35;93747.00;;;18.90
41940;BMP180;23057;48.554;14.454;2023-05-21T03:22:06;93749.00;;;18.90
41940;BMP180;23057;48.554;14.454;2023-05-21T03:24:38;93754.00;;;18.80
41940;BMP180;23057;48.554;14.454;2023-05-21T03:27:08;93759.00;;;18.80
41940;BMP180;23057;48.554;14.454;2023-05-21T03:29:39;93762.00;;;18.80
41940;BMP180;23057;48.554;14.454;2023-05-21T03:32:10;93762.00;;;18.70
41940;BMP180;23057;48.554;14.454;2023-05-21T03:34:40;93758.00;;;18.70
41940;BMP180;23057;48.554;14.454;2023-05-21T03:37:11;93765.00;;;18.70
41940;BMP180;23057;48.554;14.454;2023-05-21T03:39:42;93767.00;;;18.70
41940;BMP180;23057;48.554;14.454;2023-05-21T03:42:13;93769.00;;;18.70
41940;BMP180;23057;48.554;14.454;2023-05-21T03:44:43;93766.00;;;18.80
41940;BMP180;23057;48.554;14.454;2023-05-21T03:47:15;93767.00;;;18.80
41940;BMP180;23057;48.554;14.454;2023-05-21T03:49:46;93774.00;;;18.90
41940;BMP180;23057;48.554;14.454;2023-05-21T03:52:16;93768.00;;;19.00
41940;BMP180;23057;48.554;14.454;2023-05-21T03:54:47;93774.00;;;19.10
41940;BMP180;23057;48.554;14.454;2023-05-21T03:57:18;93773.00;;;19.10
41940;BMP180;23057;48.554;14.454;2023-05-21T03:59:49;93776.00;;;19.20
41940;BMP180;23057;48.554;14.454;2023-05-21T04:02:20;93775.00;;;19.20
41940;BMP180;23057;48.554;14.454;2023-05-21T04:04:52;93781.00;;;19.30
41940;BMP180;23057;48.554;14.454;2023-05-21T04:07:23;93776.00;;;19.40
41940;BMP180;23057;48.554;14.454;2023-05-21T04:09:53;93776.00;;;19.40
41940;BMP180;23057;48.554;14.454;2023-05-21T04:12:25;93783.00;;;19.40
41940;BMP180;23057;48.554;14.454;2023-05-21T04:14:55;93775.00;;;19.50
41940;BMP180;23057;48.554;14.454;2023-05-21T04:17:26;93779.00;;;19.60
41940;BMP180;23057;48.554;14.454;2023-05-21T04:19:57;93783.00;;;19.80
41940;BMP180;23057;48.554;14.454;2023-05-21T04:22:28;93778.00;;;19.90
41940;BMP180;23057;48.554;14.454;2023-05-21T04:24:59;93777.00;;;20.00
41940;BMP180;23057;48.554;14.454;2023-05-21T04:27:30;93776.00;;;20.10
41940;BMP180;23057;48.554;14.454;2023-05-21T04:30:01;93774.00;;;20.20
41940;BMP180;23057;48.554;14.454;2023-05-21T04:32:33;93775.00;;;20.40
41940;BMP180;23057;48.554;14.454;2023-05-21T04:35:04;93781.00;;;20.60
41940;BMP180;23057;48.554;14.454;2023-05-21T04:37:35;93778.00;;;21.00
41940;BMP180;23057;48.554;14.454;2023-05-21T04:40:09;93770.00;;;21.30
41940;BMP180;23057;48.554;14.454;2023-05-21T04:42:47;93774.00;;;21.60
41940;BMP180;23057;48.554;14.454;2023-05-21T04:45:20;93776.00;;;21.80
41940;BMP180;23057;48.554;14.454;2023-05-21T04:47:53;93780.00;;;22.10
41940;BMP180;23057;48.554;14.454;2023-05-21T04:50:24;93785.00;;;22.30
41940;BMP180;23057;48.554;14.454;2023-05-21T04:52:55;93784.00;;;22.40
41940;BMP180;23057;48.554;14.454;2023-05-21T04:55:26;93788.00;;;22.50
41940;BMP180;23057;48.554;14.454;2023-05-21T04:57:56;93788.00;;;22.60
41940;BMP180;23057;48.554;14.454;2023-05-21T05:00:27;93782.00;;;22.70
41940;BMP180;23057;48.554;14.454;2023-05-21T05:02:58;93796.00;;;22.90
41940;BMP180;23057;48.554;14.454;2023-05-21T05:05:29;93782.00;;;23.10
41940;BMP180;23057;48.554;14.454;2023-05-21T05:08:00;93786.00;;;23.40
41940;BMP180;23057;48.554;14.454;2023-05-21T05:10:31;93792.00;;;23.70
41940;BMP180;23057;48.554;14.454;2023-05-21T05:13:02;93791.00;;;24.10
41940;BMP180;23057;48.554;14.454;2023-05-21T05:15:33;93795.00;;;24.50
41940;BMP180;23057;48.554;14.454;2023-05-21T05:18:05;93790.00;;;24.80
41940;BMP180;23057;48.554;14.454;2023-05-21T05:20:37;93781.00;;;25.10
41940;BMP180;23057;48.554;14.454;2023-05-21T05:23:08;93783.00;;;25.30
41940;BMP180;23057;48.554;14.454;2023-05-21T05:25:39;93786.00;;;25.50
41940;BMP180;23057;48.554;14.454;2023-05-21T05:28:10;93790.00;;;25.60
41940;BMP180;23057;48.554;14.454;2023-05-21T05:30:41;93789.00;;;25.70
41940;BMP180;23057;48.554;14.454;2023-05-21T05:33:11;93786.00;;;25.80
41940;BMP180;23057;48.554;14.454;2023-05-21T05:35:43;93781.00;;;26.00
41940;BMP180;23057;48.554;14.454;2023-05-21T05:38:13;93786.00;;;26.10
41940;BMP180;23057;48.554;14.454;2023-05-21T05:40:44;93788.00;;;26.30
41940;BMP180;23057;48.554;14.454;2023-05-21T05:43:15;93779.00;;;26.40
41940;BMP180;23057;48.554;14.454;2023-05-21T05:45:45;93781.00;;;26.40
41940;BMP180;23057;48.554;14.454;2023-05-21T05:48:16;93777.00;;;26.50
41940;BMP180;23057;48.554;14.454;2023-05-21T05:50:47;93779.00;;;26.70
41940;BMP180;23057;48.554;14.454;2023-05-21T05:53:18;93769.00;;;26.80
41940;BMP180;23057;48.554;14.454;2023-05-21T05:55:48;93783.00;;;26.80
41940;BMP180;23057;48.554;14.454;2023-05-21T05:58:19;93772.00;;;26.80
41940;BMP180;23057;48.554;14.454;2023-05-21T06:00:50;93776.00;;;26.80
41940;BMP180;23057;48.554;14.454;2023-05-21T06:03:21;93776.00;;;26.80
41940;BMP180;23057;48.554;14.454;2023-05-21T06:05:52;93777.00;;;26.90
41940;BMP180;23057;48.554;14.454;2023-05-21T06:08:23;93769.00;;;27.00
41940;BMP180;23057;48.554;14.454;2023-05-21T06:10:53;93777.00;;;27.00
41940;BMP180;23057;48.554;14.454;2023-05-21T06:13:24;93779.00;;;27.10
41940;BMP180;23057;48.554;14.454;2023-05-21T06:15:55;93778.00;;;27.20
41940;BMP180;23057;48.554;14.454;2023-05-21T06:18:26;93764.00;;;27.20
41940;BMP180;23057;48.554;14.454;2023-05-21T06:20:57;93769.00;;;27.30
41940;BMP180;23057;48.554;14.454;2023-05-21T06:23:27;93765.00;;;27.40
41940;BMP180;23057;48.554;14.454;2023-05-21T06:25:58;93766.00;;;27.50
41940;BMP180;23057;48.554;14.454;2023-05-21T06:28:29;93764.00;;;27.50
41940;BMP180;23057;48.554;14.454;2023-05-21T06:31:00;93769.00;;;27.60
41940;BMP180;23057;48.554;14.454;2023-05-21T06:33:31;93767.00;;;27.70
41940;BMP180;23057;48.554;14.454;2023-05-21T06:36:02;93774.00;;;27.90
41940;BMP180;23057;48.554;14.454;2023-05-21T06:38:33;93771.00;;;27.90
41940;BMP180;23057;48.554;14.454;2023-05-21T06:41:04;93768.00;;;28.00
41940;BMP180;23057;48.554;14.454;2023-05-21T06:43:35;93767.00;;;28.10
41940;BMP180;23057;48.554;14.454;2023-05-21T06:46:05;93767.00;;;28.20
41940;BMP180;23057;48.554;14.454;2023-05-21T06:48:36;93768.00;;;28.40
41940;BMP180;23057;48.554;14.454;2023-05-21T06:51:07;93776.00;;;28.40
41940;BMP180;23057;48.554;14.454;2023-05-21T06:53:37;93769.00;;;28.40
41940;BMP180;23057;48.554;14.454;2023-05-21T06:56:08;93770.00;;;28.50
41940;BMP180;23057;48.554;14.454;2023-05-21T06:58:39;93777.00;;;28.60
41940;BMP180;23057;48.554;14.454;2023-05-21T07:01:10;93771.00;;;28.70
41940;BMP180;23057;48.554;14.454;2023-05-21T07:03:41;93779.00;;;28.80
41940;BMP180;23057;48.554;14.454;2023-05-21T07:06:11;93783.00;;;28.90
41940;BMP180;23057;48.554;14.454;2023-05-21T07:08:42;93767.00;;;28.90
41940;BMP180;23057;48.554;14.454;2023-05-21T07:11:13;93769.00;;;28.80
41940;BMP180;23057;48.554;14.454;2023-05-21T07:13:44;93775.00;;;28.90
41940;BMP180;23057;48.554;14.454;2023-05-21T07:16:14;93769.00;;;28.90
41940;BMP180;23057;48.554;14.454;2023-05-21T07:18:47;93762.00;;;29.00
41940;BMP180;23057;48.554;14.454;2023-05-21T07:21:17;93776.00;;;29.10
41940;BMP180;23057;48.554;14.454;2023-05-21T07:23:48;93775.00;;;29.10
41940;BMP180;23057;48.554;14.454;2023-05-21T07:26:19;93779.00;;;29.10
41940;BMP180;23057;48.554;14.454;2023-05-21T07:28:51;93780.00;;;29.20
41940;BMP180;23057;48.554;14.454;2023-05-21T07:31:21;93772.00;;;29.30
41940;BMP180;23057;48.554;14.454;2023-05-21T07:33:52;93773.00;;;29.30
41940;BMP180;23057;48.554;14.454;2023-05-21T07:36:23;93777.00;;;29.30
41940;BMP180;23057;48.554;14.454;2023-05-21T07:38:55;93775.00;;;29.30
41940;BMP180;23057;48.554;14.454;2023-05-21T07:41:26;93780.00;;;29.20
41940;BMP180;23057;48.554;14.454;2023-05-21T07:43:56;93773.00;;;29.20
41940;BMP180;23057;48.554;14.454;2023-05-21T07:46:27;93780.00;;;29.40
41940;BMP180;23057;48.554;14.454;2023-05-21T07:48:58;93777.00;;;29.40
41940;BMP180;23057;48.554;14.454;2023-05-21T07:51:29;93779.00;;;29.40
41940;BMP180;23057;48.554;14.454;2023-05-21T07:54:00;93762.00;;;29.40
41940;BMP180;23057;48.554;14.454;2023-05-21T07:56:31;93764.00;;;29.40
41940;BMP180;23057;48.554;14.454;2023-05-21T07:59:02;93767.00;;;29.40
41940;BMP180;23057;48.554;14.454;2023-05-21T08:01:32;93772.00;;;29.40
41940;BMP180;23057;48.554;14.454;2023-05-21T08:04:03;93778.00;;;29.40
41940;BMP180;23057;48.554;14.454;2023-05-21T08:06:37;93775.00;;;29.40
41940;BMP180;23057;48.554;14.454;2023-05-21T08:09:07;93781.00;;;29.30
41940;BMP180;23057;48.554;14.454;2023-05-21T08:11:38;93771.00;;;29.30
41940;BMP180;23057;48.554;14.454;2023-05-21T08:14:09;93776.00;;;29.30
41940;BMP180;23057;48.554;14.454;2023-05-21T08:16:40;93778.00;;;29.50
41940;BMP180;23057;48.554;14.454;2023-05-21T08:19:11;93772.00;;;29.50
41940;BMP180;23057;48.554;14.454;2023-05-21T08:21:42;93782.00;;;29.60
41940;BMP180;23057;48.554;14.454;2023-05-21T08:24:13;93776.00;;;29.50
41940;BMP180;23057;48.554;14.454;2023-05-21T08:26:43;93787.00;;;29.50
41940;BMP180;23057;48.554;14.454;2023-05-21T08:29:14;93780.00;;;29.50
41940;BMP180;23057;48.554;14.454;2023-05-21T08:31:45;93779.00;;;29.50
41940;BMP180;23057;48.554;14.454;2023-05-21T08:34:16;93782.00;;;29.50
41940;BMP180;23057;48.554;14.454;2023-05-21T08:36:47;93791.00;;;29.50
41940;BMP180;23057;48.554;14.454;2023-05-21T08:39:19;93790.00;;;29.50
41940;BMP180;23057;48.554;14.454;2023-05-21T08:41:56;93768.00;;;29.50
41940;BMP180;23057;48.554;14.454;2023-05-21T08:44:36;93801.00;;;29.50
41940;BMP180;23057;48.554;14.454;2023-05-21T08:47:15;93783.00;;;29.50
41940;BMP180;23057;48.554;14.454;2023-05-21T08:49:53;93780.00;;;29.60
41940;BMP180;23057;48.554;14.454;2023-05-21T08:52:25;93785.00;;;29.50
41940;BMP180;23057;48.554;14.454;2023-05-21T08:54:56;93776.00;;;29.50
41940;BMP180;23057;48.554;14.454;2023-05-21T08:57:29;93788.00;;;29.60
41940;BMP180;23057;48.554;14.454;2023-05-21T09:00:02;93789.00;;;29.70
41940;BMP180;23057;48.554;14.454;2023-05-21T09:02:37;93790.00;;;29.60
41940;BMP180;23057;48.554;14.454;2023-05-21T09:05:14;93793.00;;;29.50
41940;BMP180;23057;48.554;14.454;2023-05-21T09:07:49;93787.00;;;29.60
41940;BMP180;23057;48.554;14.454;2023-05-21T09:10:29;93788.00;;;29.70
41940;BMP180;23057;48.554;14.454;2023-05-21T09:13:05;93782.00;;;29.90
41940;BMP180;23057;48.554;14.454;2023-05-21T09:15:37;93789.00;;;29.90
41940;BMP180;23057;48.554;14.454;2023-05-21T09:18:08;93795.00;;;30.00
41940;BMP180;23057;48.554;14.454;2023-05-21T09:20:39;93797.00;;;30.00
41940;BMP180;23057;48.554;14.454;2023-05-21T09:23:10;93799.00;;;30.00
41940;BMP180;23057;48.554;14.454;2023-05-21T09:25:47;93803.00;;;30.10
41940;BMP180;23057;48.554;14.454;2023-05-21T09:28:18;93800.00;;;30.20
41940;BMP180;23057;48.554;14.454;2023-05-21T09:30:52;93791.00;;;30.20
41940;BMP180;23057;48.554;14.454;2023-05-21T09:33:27;93792.00;;;30.20
41940;BMP180;23057;48.554;14.454;2023-05-21T09:36:01;93801.00;;;30.20
41940;BMP180;23057;48.554;14.454;2023-05-21T09:38:32;93792.00;;;30.00
41940;BMP180;23057;48.554;14.454;2023-05-21T09:41:04;93798.00;;;29.90
41940;BMP180;23057;48.554;14.454;2023-05-21T09:43:36;93803.00;;;29.80
41940;BMP180;23057;48.554;14.454;2023-05-21T09:46:07;93792.00;;;29.90
41940;BMP180;23057;48.554;14.454;2023-05-21T09:48:41;93790.00;;;30.00
41940;BMP180;23057;48.554;14.454;2023-05-21T09:51:17;93794.00;;;30.20
41940;BMP180;23057;48.554;14.454;2023-05-21T09:53:53;93786.00;;;30.20
41940;BMP180;23057;48.554;14.454;2023-05-21T09:56:27;93794.00;;;30.20
41940;BMP180;23057;48.554;14.454;2023-05-21T09:59:01;93791.00;;;30.20
41940;BMP180;23057;48.554;14.454;2023-05-21T10:01:36;93791.00;;;30.10
41940;BMP180;23057;48.554;14.454;2023-05-21T10:04:08;93790.00;;;30.00
41940;BMP180;23057;48.554;14.454;2023-05-21T10:06:41;93784.00;;;30.00
41940;BMP180;23057;48.554;14.454;2023-05-21T10:09:14;93778.00;;;30.20
41940;BMP180;23057;48.554;14.454;2023-05-21T10:11:48;93782.00;;;30.30
41940;BMP180;23057;48.554;14.454;2023-05-21T10:14:24;93773.00;;;30.30
41940;BMP180;23057;48.554;14.454;2023-05-21T10:16:58;93762.00;;;30.30
41940;BMP180;23057;48.554;14.454;2023-05-21T10:19:31;93773.00;;;30.30
41940;BMP180;23057;48.554;14.454;2023-05-21T10:22:03;93778.00;;;30.20
41940;BMP180;23057;48.554;14.454;2023-05-21T10:24:36;93780.00;;;30.20
41940;BMP180;23057;48.554;14.454;2023-05-21T10:27:09;93769.00;;;30.20
41940;BMP180;23057;48.554;14.454;2023-05-21T10:29:42;93761.00;;;30.10
41940;BMP180;23057;48.554;14.454;2023-05-21T10:32:15;93768.00;;;30.10
41940;BMP180;23057;48.554;14.454;2023-05-21T10:34:47;93766.00;;;30.00
41940;BMP180;23057;48.554;14.454;2023-05-21T10:39:54;93764.00;;;29.80
41940;BMP180;23057;48.554;14.454;2023-05-21T10:52:23;93760.00;;;30.20
41940;BMP180;23057;48.554;14.454;2023-05-21T10:57:50;93751.00;;;30.40
41940;BMP180;23057;48.554;14.454;2023-05-21T11:00:43;93756.00;;;30.50
41940;BMP180;23057;48.554;14.454;2023-05-21T11:03:15;93751.00;;;30.60
41940;BMP180;23057;48.554;14.454;2023-05-21T11:05:53;93759.00;;;30.70
41940;BMP180;23057;48.554;14.454;2023-05-21T11:08:27;93751.00;;;30.90
41940;BMP180;23057;48.554;14.454;2023-05-21T11:11:04;93753.00;;;30.90
41940;BMP180;23057;48.554;14.454;2023-05-21T11:13:46;93750.00;;;30.80
41940;BMP180;23057;48.554;14.454;2023-05-21T11:16:22;93749.00;;;30.50
41940;BMP180;23057;48.554;14.454;2023-05-21T11:18:57;93769.00;;;30.40
41940;BMP180;23057;48.554;14.454;2023-05-21T11:21:29;93750.00;;;30.30
41940;BMP180;23057;48.554;14.454;2023-05-21T11:24:05;93742.00;;;30.20
41940;BMP180;23057;48.554;14.454;2023-05-21T11:29:41;93754.00;;;30.50
41940;BMP180;23057;48.554;14.454;2023-05-21T11:32:14;93750.00;;;30.70
41940;BMP180;23057;48.554;14.454;2023-05-21T11:34:47;93758.00;;;30.80
41940;BMP180;23057;48.554;14.454;2023-05-21T11:39:50;93761.00;;;30.90
41940;BMP180;23057;48.554;14.454;2023-05-21T11:42:34;93769.00;;;30.90
41940;BMP180;23057;48.554;14.454;2023-05-21T11:45:09;93750.00;;;30.70
41940;BMP180;23057;48.554;14.454;2023-05-21T11:47:40;93748.00;;;30.90
41940;BMP180;23057;48.554;14.454;2023-05-21T11:50:14;93753.00;;;31.00
41940;BMP180;23057;48.554;14.454;2023-05-21T11:52:46;93744.00;;;31.10
41940;BMP180;23057;48.554;14.454;2023-05-21T11:55:23;93744.00;;;31.20
41940;BMP180;23057;48.554;14.454;2023-05-21T11:57:55;93736.00;;;31.30
41940;BMP180;23057;48.554;14.454;2023-05-21T12:00:28;93739.00;;;31.40
41940;BMP180;23057;48.554;14.454;2023-05-21T12:02:59;93733.00;;;31.60
41940;BMP180;23057;48.554;14.454;2023-05-21T12:05:29;93731.00;;;31.50
41940;BMP180;23057;48.554;14.454;2023-05-21T12:08:00;93745.00;;;31.20
41940;BMP180;23057;48.554;14.454;2023-05-21T12:10:31;93736.00;;;31.00
41940;BMP180;23057;48.554;14.454;2023-05-21T12:13:02;93743.00;;;30.70
41940;BMP180;23057;48.554;14.454;2023-05-21T12:15:34;93740.00;;;30.50
41940;BMP180;23057;48.554;14.454;2023-05-21T12:18:05;93737.00;;;30.40
41940;BMP180;23057;48.554;14.454;2023-05-21T12:20:36;93749.00;;;30.30
41940;BMP180;23057;48.554;14.454;2023-05-21T12:23:06;93738.00;;;30.30
41940;BMP180;23057;48.554;14.454;2023-05-21T12:25:37;93741.00;;;30.30
41940;BMP180;23057;48.554;14.454;2023-05-21T12:28:08;93731.00;;;30.50
41940;BMP180;23057;48.554;14.454;2023-05-21T12:30:39;93739.00;;;30.60
41940;BMP180;23057;48.554;14.454;2023-05-21T12:33:10;93742.00;;;30.70
41940;BMP180;23057;48.554;14.454;2023-05-21T12:35:44;93726.00;;;30.70
41940;BMP180;23057;48.554;14.454;2023-05-21T12:38:19;93723.00;;;30.80
41940;BMP180;23057;48.554;14.454;2023-05-21T12:40:50;93740.00;;;30.80
41940;BMP180;23057;48.554;14.454;2023-05-21T12:43:20;93732.00;;;30.80
41940;BMP180;23057;48.554;14.454;2023-05-21T12:45:52;93744.00;;;30.70
41940;BMP180;23057;48.554;14.454;2023-05-21T12:48:22;93734.00;;;30.60
41940;BMP180;23057;48.554;14.454;2023-05-21T12:50:53;93745.00;;;30.40
41940;BMP180;23057;48.554;14.454;2023-05-21T12:53:24;93740.00;;;30.40
41940;BMP180;23057;48.554;14.454;2023-05-21T12:56:12;93738.00;;;30.30
41940;BMP180;23057;48.554;14.454;2023-05-21T12:58:49;93729.00;;;30.40
41940;BMP180;23057;48.554;14.454;2023-05-21T13:01:20;93725.00;;;30.50
41940;BMP180;23057;48.554;14.454;2023-05-21T13:03:51;93737.00;;;30.70
41940;BMP180;23057;48.554;14.454;2023-05-21T13:06:21;93730.00;;;30.70
41940;BMP180;23057;48.554;14.454;2023-05-21T13:08:52;93738.00;;;30.60
41940;BMP180;23057;48.554;14.454;2023-05-21T13:11:25;93727.00;;;30.60
41940;BMP180;23057;48.554;14.454;2023-05-21T13:13:55;93732.00;;;30.70
41940;BMP180;23057;48.554;14.454;2023-05-21T13:16:26;93731.00;;;30.70
41940;BMP180;23057;48.554;14.454;2023-05-21T13:18:57;93730.00;;;30.70
41940;BMP180;23057;48.554;14.454;2023-05-21T13:21:28;93732.00;;;30.60
41940;BMP180;23057;48.554;14.454;2023-05-21T13:23:58;93740.00;;;30.50
41940;BMP180;23057;48.554;14.454;2023-05-21T13:26:29;93734.00;;;30.30
41940;BMP180;23057;48.554;14.454;2023-05-21T13:29:00;93741.00;;;30.20
41940;BMP180;23057;48.554;14.454;2023-05-21T13:31:30;93743.00;;;30.00
41940;BMP180;23057;48.554;14.454;2023-05-21T13:34:01;93738.00;;;29.90
41940;BMP180;23057;48.554;14.454;2023-05-21T13:36:32;93739.00;;;29.80
41940;BMP180;23057;48.554;14.454;2023-05-21T13:39:03;93740.00;;;29.80
41940;BMP180;23057;48.554;14.454;2023-05-21T13:41:34;93744.00;;;29.80
41940;BMP180;23057;48.554;14.454;2023-05-21T13:44:05;93739.00;;;29.80
41940;BMP180;23057;48.554;14.454;2023-05-21T13:46:35;93741.00;;;29.90
41940;BMP180;23057;48.554;14.454;2023-05-21T13:49:08;93736.00;;;30.00
41940;BMP180;23057;48.554;14.454;2023-05-21T13:51:39;93734.00;;;30.10
41940;BMP180;23057;48.554;14.454;2023-05-21T13:54:10;93734.00;;;30.20
41940;BMP180;23057;48.554;14.454;2023-05-21T13:56:40;93748.00;;;30.40
41940;BMP180;23057;48.554;14.454;2023-05-21T13:59:11;93745.00;;;30.40
41940;BMP180;23057;48.554;14.454;2023-05-21T14:01:42;93748.00;;;30.40
41940;BMP180;23057;48.554;14.454;2023-05-21T14:04:18;93765.00;;;30.30
41940;BMP180;23057;48.554;14.454;2023-05-21T14:06:50;93756.00;;;30.10
41940;BMP180;23057;48.554;14.454;2023-05-21T14:09:21;93750.00;;;29.80
41940;BMP180;23057;48.554;14.454;2023-05-21T14:11:52;93752.00;;;29.60
41940;BMP180;23057;48.554;14.454;2023-05-21T14:14:24;93750.00;;;29.40
41940;BMP180;23057;48.554;14.454;2023-05-21T14:16:55;93747.00;;;29.20
41940;BMP180;23057;48.554;14.454;2023-05-21T14:19:26;93736.00;;;29.10
41940;BMP180;23057;48.554;14.454;2023-05-21T14:21:57;93741.00;;;29.00
41940;BMP180;23057;48.554;14.454;2023-05-21T14:24:29;93734.00;;;28.90
41940;BMP180;23057;48.554;14.454;2023-05-21T14:26:59;93730.00;;;28.80
41940;BMP180;23057;48.554;14.454;2023-05-21T14:29:30;93726.00;;;28.70
41940;BMP180;23057;48.554;14.454;2023-05-21T14:32:02;93720.00;;;28.60
41940;BMP180;23057;48.554;14.454;2023-05-21T14:34:33;93723.00;;;28.40
41940;BMP180;23057;48.554;14.454;2023-05-21T14:37:04;93731.00;;;28.30
41940;BMP180;23057;48.554;14.454;2023-05-21T14:39:35;93723.00;;;28.30
41940;BMP180;23057;48.554;14.454;2023-05-21T14:42:06;93726.00;;;28.30
41940;BMP180;23057;48.554;14.454;2023-05-21T14:44:36;93740.00;;;28.20